sensor_id;sensor_type;location;lat;lon;timestamp;temperature;humidity
34766;DHT22;20984;43.508;1.504;2022-09-13T00:01:01;23.00;99.90
34766;DHT22;20984;43.508;1.504;2022-09-13T00:03:30;23.00;99.90
34766;DHT22;20984;43.508;1.504;2022-09-13T00:06:09;23.00;99.90
34766;DHT22;20984;43.508;1.504;2022-09-13T00:08:38;22.90;99.90
34766;DHT22;20984;43.508;1.504;2022-09-13T00:11:30;22.90;99.90
34766;DHT22;20984;43.508;1.504;2022-09-13T00:13:59;22.90;99.90
34766;DHT22;20984;43.508;1.504;2022-09-13T00:16:28;22.80;99.90
34766;DHT22;20984;43.508;1.504;2022-09-13T00:19:04;22.80;99.90
34766;DHT22;20984;43.508;1.504;2022-09-13T00:21:39;22.80;99.90
34766;DHT22;20984;43.508;1.504;2022-09-13T00:24:14;22.80;99.90
34766;DHT22;20984;43.508;1.504;2022-09-13T00:26:43;22.80;99.90
34766;DHT22;20984;43.508;1.504;2022-09-13T00:29:11;22.80;99.90
34766;DHT22;20984;43.508;1.504;2022-09-13T00:31:42;22.80;99.90
34766;DHT22;20984;43.508;1.504;2022-09-13T00:34:35;22.70;99.90
34766;DHT22;20984;43.508;1.504;2022-09-13T00:37:06;22.70;99.90
34766;DHT22;20984;43.508;1.504;2022-09-13T00:39:35;22.70;99.90
34766;DHT22;20984;43.508;1.504;2022-09-13T00:42:16;22.70;99.90
34766;DHT22;20984;43.508;1.504;2022-09-13T00:44:57;22.70;99.90
34766;DHT22;20984;43.508;1.504;2022-09-13T00:52:39;22.80;99.90
34766;DHT22;20984;43.508;1.504;2022-09-13T00:55:29;22.90;99.90
34766;DHT22;20984;43.508;1.504;2022-09-13T00:58:10;22.90;99.90
34766;DHT22;20984;43.508;1.504;2022-09-13T01:00:37;22.90;99.90
34766;DHT22;20984;43.508;1.504;2022-09-13T01:03:09;23.00;99.90
34766;DHT22;20984;43.508;1.504;2022-09-13T01:05:46;23.00;99.90
34766;DHT22;20984;43.508;1.504;2022-09-13T01:08:20;23.00;99.90
34766;DHT22;20984;43.508;1.504;2022-09-13T01:10:51;23.10;99.90
34766;DHT22;20984;43.508;1.504;2022-09-13T01:13:23;23.10;99.90
34766;DHT22;20984;43.508;1.504;2022-09-13T01:15:52;23.10;99.90
34766;DHT22;20984;43.508;1.504;2022-09-13T01:18:25;23.10;99.90
34766;DHT22;20984;43.508;1.504;2022-09-13T01:26:34;23.20;99.90
34766;DHT22;20984;43.508;1.504;2022-09-13T01:37:45;23.20;99.90
34766;DHT22;20984;43.508;1.504;2022-09-13T01:57:57;23.00;99.90
34766;DHT22;20984;43.508;1.504;2022-09-13T02:00:31;23.00;99.90
34766;DHT22;20984;43.508;1.504;2022-09-13T02:06:41;22.90;99.90
34766;DHT22;20984;43.508;1.504;2022-09-13T02:09:26;22.80;99.90
34766;DHT22;20984;43.508;1.504;2022-09-13T02:15:36;22.70;99.90
34766;DHT22;20984;43.508;1.504;2022-09-13T02:18:42;22.70;99.90
34766;DHT22;20984;43.508;1.504;2022-09-13T02:21:43;22.70;99.90
34766;DHT22;20984;43.508;1.504;2022-09-13T02:24:35;22.60;99.90
34766;DHT22;20984;43.508;1.504;2022-09-13T02:27:19;22.60;99.90
34766;DHT22;20984;43.508;1.504;2022-09-13T02:30:02;22.50;99.90
34766;DHT22;20984;43.508;1.504;2022-09-13T02:32:52;22.50;99.90
34766;DHT22;20984;43.508;1.504;2022-09-13T02:35:37;22.50;99.90
34766;DHT22;20984;43.508;1.504;2022-09-13T02:44:13;22.40;99.90
34766;DHT22;20984;43.508;1.504;2022-09-13T02:47:03;22.40;99.90
34766;DHT22;20984;43.508;1.504;2022-09-13T02:52:52;22.50;99.90
34766;DHT22;20984;43.508;1.504;2022-09-13T02:58:31;22.80;99.90
34766;DHT22;20984;43.508;1.504;2022-09-13T03:01:06;22.90;99.90
34766;DHT22;20984;43.508;1.504;2022-09-13T03:03:51;23.00;99.90
34766;DHT22;20984;43.508;1.504;2022-09-13T03:06:36;23.10;99.90
34766;DHT22;20984;43.508;1.504;2022-09-13T03:09:05;23.30;99.90
34766;DHT22;20984;43.508;1.504;2022-09-13T03:11:45;23.30;99.90
34766;DHT22;20984;43.508;1.504;2022-09-13T03:20:00;23.50;99.90
34766;DHT22;20984;43.508;1.504;2022-09-13T03:23:02;23.50;99.90
34766;DHT22;20984;43.508;1.504;2022-09-13T03:26:07;23.50;99.90
34766;DHT22;20984;43.508;1.504;2022-09-13T03:34:52;23.50;99.90
34766;DHT22;20984;43.508;1.504;2022-09-13T03:37:53;23.50;99.90
34766;DHT22;20984;43.508;1.504;2022-09-13T03:40:47;23.50;99.90
34766;DHT22;20984;43.508;1.504;2022-09-13T03:46:42;23.50;99.90
34766;DHT22;20984;43.508;1.504;2022-09-13T03:49:35;23.50;99.90
34766;DHT22;20984;43.508;1.504;2022-09-13T03:52:07;23.50;99.90
34766;DHT22;20984;43.508;1.504;2022-09-13T03:54:39;23.50;99.90
34766;DHT22;20984;43.508;1.504;2022-09-13T04:00:40;23.50;99.90
34766;DHT22;20984;43.508;1.504;2022-09-13T04:03:24;23.40;99.90
34766;DHT22;20984;43.508;1.504;2022-09-13T04:06:22;23.40;99.90
34766;DHT22;20984;43.508;1.504;2022-09-13T04:09:05;23.40;99.90
34766;DHT22;20984;43.508;1.504;2022-09-13T04:11:44;23.40;99.90
34766;DHT22;20984;43.508;1.504;2022-09-13T04:14:14;23.40;99.90
34766;DHT22;20984;43.508;1.504;2022-09-13T04:16:53;23.40;99.90
34766;DHT22;20984;43.508;1.504;2022-09-13T04:19:24;23.40;99.90
34766;DHT22;20984;43.508;1.504;2022-09-13T04:22:01;23.40;99.90
34766;DHT22;20984;43.508;1.504;2022-09-13T04:24:50;23.40;99.90
34766;DHT22;20984;43.508;1.504;2022-09-13T04:27:19;23.40;99.90
34766;DHT22;20984;43.508;1.504;2022-09-13T04:29:45;23.40;99.90
34766;DHT22;20984;43.508;1.504;2022-09-13T04:32:16;23.40;99.90
34766;DHT22;20984;43.508;1.504;2022-09-13T04:34:47;23.40;99.90
34766;DHT22;20984;43.508;1.504;2022-09-13T04:37:22;23.50;99.90
34766;DHT22;20984;43.508;1.504;2022-09-13T04:39:55;23.50;99.90
34766;DHT22;20984;43.508;1.504;2022-09-13T04:42:28;23.50;99.90
34766;DHT22;20984;43.508;1.504;2022-09-13T04:44:57;23.40;99.90
34766;DHT22;20984;43.508;1.504;2022-09-13T04:47:34;23.40;99.90
34766;DHT22;20984;43.508;1.504;2022-09-13T04:50:11;23.40;99.90
34766;DHT22;20984;43.508;1.504;2022-09-13T04:53:02;23.40;99.90
34766;DHT22;20984;43.508;1.504;2022-09-13T04:55:32;23.40;99.90
34766;DHT22;20984;43.508;1.504;2022-09-13T04:58:25;23.40;99.90
34766;DHT22;20984;43.508;1.504;2022-09-13T05:01:00;23.40;99.90
34766;DHT22;20984;43.508;1.504;2022-09-13T05:03:41;23.40;99.90
34766;DHT22;20984;43.508;1.504;2022-09-13T05:06:14;23.40;99.90
34766;DHT22;20984;43.508;1.504;2022-09-13T05:08:53;23.40;99.90
34766;DHT22;20984;43.508;1.504;2022-09-13T05:11:29;23.50;99.90
34766;DHT22;20984;43.508;1.504;2022-09-13T05:13:59;23.50;99.90
34766;DHT22;20984;43.508;1.504;2022-09-13T05:16:31;23.40;99.90
34766;DHT22;20984;43.508;1.504;2022-09-13T05:19:13;23.40;99.90
34766;DHT22;20984;43.508;1.504;2022-09-13T05:21:54;23.50;99.90
34766;DHT22;20984;43.508;1.504;2022-09-13T05:24:24;23.50;99.90
34766;DHT22;20984;43.508;1.504;2022-09-13T05:27:02;23.50;99.90
34766;DHT22;20984;43.508;1.504;2022-09-13T05:30:03;23.50;99.90
34766;DHT22;20984;43.508;1.504;2022-09-13T05:32:40;23.50;99.90
34766;DHT22;20984;43.508;1.504;2022-09-13T05:35:07;23.50;99.90
34766;DHT22;20984;43.508;1.504;2022-09-13T05:37:35;23.50;99.90
34766;DHT22;20984;43.508;1.504;2022-09-13T05:40:03;23.50;99.90
34766;DHT22;20984;43.508;1.504;2022-09-13T05:42:34;23.50;99.90
34766;DHT22;20984;43.508;1.504;2022-09-13T05:45:11;23.50;99.90
34766;DHT22;20984;43.508;1.504;2022-09-13T05:47:37;23.50;99.90
34766;DHT22;20984;43.508;1.504;2022-09-13T05:50:04;23.50;99.90
34766;DHT22;20984;43.508;1.504;2022-09-13T05:52:40;23.50;99.90
34766;DHT22;20984;43.508;1.504;2022-09-13T05:55:23;23.50;99.90
34766;DHT22;20984;43.508;1.504;2022-09-13T05:57:59;23.50;99.90
34766;DHT22;20984;43.508;1.504;2022-09-13T06:00:28;23.50;99.90
34766;DHT22;20984;43.508;1.504;2022-09-13T06:03:09;23.60;99.90
34766;DHT22;20984;43.508;1.504;2022-09-13T06:05:54;23.50;99.90
34766;DHT22;20984;43.508;1.504;2022-09-13T06:08:22;23.60;99.90
34766;DHT22;20984;43.508;1.504;2022-09-13T06:11:10;23.60;99.90
34766;DHT22;20984;43.508;1.504;2022-09-13T06:13:48;23.50;99.90
34766;DHT22;20984;43.508;1.504;2022-09-13T06:16:31;23.50;99.90
34766;DHT22;20984;43.508;1.504;2022-09-13T06:19:00;23.50;99.90
34766;DHT22;20984;43.508;1.504;2022-09-13T06:21:36;23.60;99.90
34766;DHT22;20984;43.508;1.504;2022-09-13T06:24:11;23.60;99.90
34766;DHT22;20984;43.508;1.504;2022-09-13T06:26:49;23.60;99.90
34766;DHT22;20984;43.508;1.504;2022-09-13T06:29:38;23.60;99.90
34766;DHT22;20984;43.508;1.504;2022-09-13T06:32:13;23.60;99.90
34766;DHT22;20984;43.508;1.504;2022-09-13T06:34:42;23.70;99.90
34766;DHT22;20984;43.508;1.504;2022-09-13T06:37:12;23.70;99.90
34766;DHT22;20984;43.508;1.504;2022-09-13T06:39:38;23.70;99.90
34766;DHT22;20984;43.508;1.504;2022-09-13T06:42:10;23.70;99.90
34766;DHT22;20984;43.508;1.504;2022-09-13T06:44:43;23.70;99.90
34766;DHT22;20984;43.508;1.504;2022-09-13T06:47:17;23.80;99.90
34766;DHT22;20984;43.508;1.504;2022-09-13T06:49:56;23.80;99.90
34766;DHT22;20984;43.508;1.504;2022-09-13T06:52:32;23.80;99.90
34766;DHT22;20984;43.508;1.504;2022-09-13T06:55:05;23.80;99.90
34766;DHT22;20984;43.508;1.504;2022-09-13T06:57:51;23.80;99.90
34766;DHT22;20984;43.508;1.504;2022-09-13T07:00:19;23.90;99.90
34766;DHT22;20984;43.508;1.504;2022-09-13T07:02:50;23.90;99.90
34766;DHT22;20984;43.508;1.504;2022-09-13T07:05:46;23.90;99.90
34766;DHT22;20984;43.508;1.504;2022-09-13T07:08:28;23.90;99.90
34766;DHT22;20984;43.508;1.504;2022-09-13T07:11:20;24.00;99.90
34766;DHT22;20984;43.508;1.504;2022-09-13T07:13:59;24.00;99.90
34766;DHT22;20984;43.508;1.504;2022-09-13T07:16:29;24.00;99.90
34766;DHT22;20984;43.508;1.504;2022-09-13T07:19:09;24.10;99.90
34766;DHT22;20984;43.508;1.504;2022-09-13T07:21:36;24.10;99.90
34766;DHT22;20984;43.508;1.504;2022-09-13T07:24:07;24.10;99.90
34766;DHT22;20984;43.508;1.504;2022-09-13T07:26:53;24.20;99.90
34766;DHT22;20984;43.508;1.504;2022-09-13T07:29:24;24.20;99.90
34766;DHT22;20984;43.508;1.504;2022-09-13T07:31:54;24.30;99.90
34766;DHT22;20984;43.508;1.504;2022-09-13T07:34:31;24.40;99.90
34766;DHT22;20984;43.508;1.504;2022-09-13T07:36:57;24.40;99.90
34766;DHT22;20984;43.508;1.504;2022-09-13T07:39:26;24.50;99.90
34766;DHT22;20984;43.508;1.504;2022-09-13T07:41:59;24.60;99.90
34766;DHT22;20984;43.508;1.504;2022-09-13T07:44:28;24.70;99.90
34766;DHT22;20984;43.508;1.504;2022-09-13T07:46:57;24.80;99.90
34766;DHT22;20984;43.508;1.504;2022-09-13T07:49:51;24.90;99.90
34766;DHT22;20984;43.508;1.504;2022-09-13T07:52:21;25.00;99.90
34766;DHT22;20984;43.508;1.504;2022-09-13T07:54:59;25.20;99.90
34766;DHT22;20984;43.508;1.504;2022-09-13T07:57:26;25.20;99.90
34766;DHT22;20984;43.508;1.504;2022-09-13T07:59:57;25.30;99.90
34766;DHT22;20984;43.508;1.504;2022-09-13T08:02:50;25.30;99.90
34766;DHT22;20984;43.508;1.504;2022-09-13T08:05:21;25.40;99.90
34766;DHT22;20984;43.508;1.504;2022-09-13T08:07:47;25.60;99.90
34766;DHT22;20984;43.508;1.504;2022-09-13T08:10:30;25.60;99.90
34766;DHT22;20984;43.508;1.504;2022-09-13T08:13:08;25.70;99.90
34766;DHT22;20984;43.508;1.504;2022-09-13T08:15:39;25.80;99.90
34766;DHT22;20984;43.508;1.504;2022-09-13T08:18:45;25.80;99.90
34766;DHT22;20984;43.508;1.504;2022-09-13T08:21:34;25.90;99.90
34766;DHT22;20984;43.508;1.504;2022-09-13T08:24:06;26.00;99.90
34766;DHT22;20984;43.508;1.504;2022-09-13T08:26:37;25.90;99.90
34766;DHT22;20984;43.508;1.504;2022-09-13T08:29:04;25.90;99.90
34766;DHT22;20984;43.508;1.504;2022-09-13T08:31:38;25.90;99.90
34766;DHT22;20984;43.508;1.504;2022-09-13T08:34:17;25.80;99.90
34766;DHT22;20984;43.508;1.504;2022-09-13T08:36:48;25.90;99.90
34766;DHT22;20984;43.508;1.504;2022-09-13T08:42:23;25.80;99.90
34766;DHT22;20984;43.508;1.504;2022-09-13T08:44:55;25.80;99.90
34766;DHT22;20984;43.508;1.504;2022-09-13T08:50:57;25.80;99.90
34766;DHT22;20984;43.508;1.504;2022-09-13T08:53:47;25.80;99.90
34766;DHT22;20984;43.508;1.504;2022-09-13T08:59:47;25.80;99.90
34766;DHT22;20984;43.508;1.504;2022-09-13T09:05:44;25.80;99.90
34766;DHT22;20984;43.508;1.504;2022-09-13T09:08:36;25.90;99.90
34766;DHT22;20984;43.508;1.504;2022-09-13T09:11:40;26.00;99.90
34766;DHT22;20984;43.508;1.504;2022-09-13T09:17:22;25.90;99.90
34766;DHT22;20984;43.508;1.504;2022-09-13T09:20:15;25.90;99.90
34766;DHT22;20984;43.508;1.504;2022-09-13T09:22:54;25.90;99.90
34766;DHT22;20984;43.508;1.504;2022-09-13T09:28:20;25.90;99.90
34766;DHT22;20984;43.508;1.504;2022-09-13T09:31:03;25.90;99.90
34766;DHT22;20984;43.508;1.504;2022-09-13T09:36:40;25.90;99.90
34766;DHT22;20984;43.508;1.504;2022-09-13T09:39:26;25.80;99.90
34766;DHT22;20984;43.508;1.504;2022-09-13T09:45:30;25.90;99.90
34766;DHT22;20984;43.508;1.504;2022-09-13T09:48:14;25.90;99.90
34766;DHT22;20984;43.508;1.504;2022-09-13T09:50:59;25.90;99.90
34766;DHT22;20984;43.508;1.504;2022-09-13T09:53:41;26.00;99.90
34766;DHT22;20984;43.508;1.504;2022-09-13T09:56:22;26.00;99.90
34766;DHT22;20984;43.508;1.504;2022-09-13T09:59:25;26.00;99.90
34766;DHT22;20984;43.508;1.504;2022-09-13T10:01:54;26.10;99.90
34766;DHT22;20984;43.508;1.504;2022-09-13T10:04:35;26.20;99.90
34766;DHT22;20984;43.508;1.504;2022-09-13T10:10:25;26.40;99.90
34766;DHT22;20984;43.508;1.504;2022-09-13T10:12:54;26.40;99.90
34766;DHT22;20984;43.508;1.504;2022-09-13T10:15:32;26.50;99.90
34766;DHT22;20984;43.508;1.504;2022-09-13T10:18:13;26.60;99.90
34766;DHT22;20984;43.508;1.504;2022-09-13T10:24:14;26.80;99.90
34766;DHT22;20984;43.508;1.504;2022-09-13T10:26:38;26.80;99.90
34766;DHT22;20984;43.508;1.504;2022-09-13T10:29:05;26.80;99.90
34766;DHT22;20984;43.508;1.504;2022-09-13T10:34:34;27.30;99.90
34766;DHT22;20984;43.508;1.504;2022-09-13T10:37:19;27.20;99.90
34766;DHT22;20984;43.508;1.504;2022-09-13T10:40:12;27.50;99.90
34766;DHT22;20984;43.508;1.504;2022-09-13T10:42:56;27.60;99.90
34766;DHT22;20984;43.508;1.504;2022-09-13T10:45:27;27.70;99.90
34766;DHT22;20984;43.508;1.504;2022-09-13T10:48:29;27.80;99.90
34766;DHT22;20984;43.508;1.504;2022-09-13T10:51:07;27.80;99.90
34766;DHT22;20984;43.508;1.504;2022-09-13T10:53:45;28.10;99.90
34766;DHT22;20984;43.508;1.504;2022-09-13T10:56:24;28.20;99.90
34766;DHT22;20984;43.508;1.504;2022-09-13T10:59:23;28.20;99.90
34766;DHT22;20984;43.508;1.504;2022-09-13T11:05:02;28.50;99.90
34766;DHT22;20984;43.508;1.504;2022-09-13T11:10:24;28.50;99.90
34766;DHT22;20984;43.508;1.504;2022-09-13T11:13:13;28.60;99.90
34766;DHT22;20984;43.508;1.504;2022-09-13T11:22:17;28.80;99.90
34766;DHT22;20984;43.508;1.504;2022-09-13T11:35:56;28.60;99.90
34766;DHT22;20984;43.508;1.504;2022-09-13T11:42:00;28.60;99.90
34766;DHT22;20984;43.508;1.504;2022-09-13T11:45:07;28.60;99.90
34766;DHT22;20984;43.508;1.504;2022-09-13T11:51:20;28.40;99.90
34766;DHT22;20984;43.508;1.504;2022-09-13T11:57:26;28.20;99.90
34766;DHT22;20984;43.508;1.504;2022-09-13T12:03:30;28.10;99.90
34766;DHT22;20984;43.508;1.504;2022-09-13T12:06:49;28.20;99.90
34766;DHT22;20984;43.508;1.504;2022-09-13T12:12:52;28.20;99.90
34766;DHT22;20984;43.508;1.504;2022-09-13T12:22:19;28.00;99.90
34766;DHT22;20984;43.508;1.504;2022-09-13T12:25:11;28.00;99.90
34766;DHT22;20984;43.508;1.504;2022-09-13T12:28:21;28.00;99.90
34766;DHT22;20984;43.508;1.504;2022-09-13T12:31:14;28.00;99.90
34766;DHT22;20984;43.508;1.504;2022-09-13T12:33:48;28.10;99.90
34766;DHT22;20984;43.508;1.504;2022-09-13T12:39:56;28.20;99.90
34766;DHT22;20984;43.508;1.504;2022-09-13T12:45:57;28.20;99.90
34766;DHT22;20984;43.508;1.504;2022-09-13T12:48:41;28.10;99.90
34766;DHT22;20984;43.508;1.504;2022-09-13T12:51:51;28.10;99.90
34766;DHT22;20984;43.508;1.504;2022-09-13T13:10:36;27.90;99.90
34766;DHT22;20984;43.508;1.504;2022-09-13T13:16:01;27.70;99.90
34766;DHT22;20984;43.508;1.504;2022-09-13T13:24:41;27.50;99.90
34766;DHT22;20984;43.508;1.504;2022-09-13T13:27:35;27.50;99.90
34766;DHT22;20984;43.508;1.504;2022-09-13T13:30:33;27.50;99.90
34766;DHT22;20984;43.508;1.504;2022-09-13T13:36:21;27.50;99.90
34766;DHT22;20984;43.508;1.504;2022-09-13T13:42:27;27.60;99.90
34766;DHT22;20984;43.508;1.504;2022-09-13T13:53:16;27.50;99.90
34766;DHT22;20984;43.508;1.504;2022-09-13T13:59:18;27.40;99.90
34766;DHT22;20984;43.508;1.504;2022-09-13T14:02:19;27.40;99.90
34766;DHT22;20984;43.508;1.504;2022-09-13T14:05:29;27.40;99.90
34766;DHT22;20984;43.508;1.504;2022-09-13T14:20:32;27.70;99.90
34766;DHT22;20984;43.508;1.504;2022-09-13T14:23:18;28.00;99.90
34766;DHT22;20984;43.508;1.504;2022-09-13T14:25:45;28.30;99.90
34766;DHT22;20984;43.508;1.504;2022-09-13T14:28:35;28.60;99.90
34766;DHT22;20984;43.508;1.504;2022-09-13T14:31:18;28.60;99.90
34766;DHT22;20984;43.508;1.504;2022-09-13T14:37:17;28.60;99.90
34766;DHT22;20984;43.508;1.504;2022-09-13T14:42:53;28.60;99.90
34766;DHT22;20984;43.508;1.504;2022-09-13T14:45:25;28.50;99.90
34766;DHT22;20984;43.508;1.504;2022-09-13T14:48:40;28.50;99.90
34766;DHT22;20984;43.508;1.504;2022-09-13T14:54:37;28.20;99.90
34766;DHT22;20984;43.508;1.504;2022-09-13T14:57:35;28.20;99.90
34766;DHT22;20984;43.508;1.504;2022-09-13T15:00:45;28.20;99.90
34766;DHT22;20984;43.508;1.504;2022-09-13T15:03:15;28.00;99.90
34766;DHT22;20984;43.508;1.504;2022-09-13T15:05:56;28.10;99.90
34766;DHT22;20984;43.508;1.504;2022-09-13T15:08:45;28.00;99.90
34766;DHT22;20984;43.508;1.504;2022-09-13T15:16:49;27.70;99.90
34766;DHT22;20984;43.508;1.504;2022-09-13T15:19:25;27.60;99.90
34766;DHT22;20984;43.508;1.504;2022-09-13T15:22:24;27.50;99.90
34766;DHT22;20984;43.508;1.504;2022-09-13T15:25:23;27.60;99.90
34766;DHT22;20984;43.508;1.504;2022-09-13T15:30:50;27.40;99.90
34766;DHT22;20984;43.508;1.504;2022-09-13T15:33:26;27.20;99.90
34766;DHT22;20984;43.508;1.504;2022-09-13T15:36:28;27.10;99.90
34766;DHT22;20984;43.508;1.504;2022-09-13T15:41:50;26.90;99.90
34766;DHT22;20984;43.508;1.504;2022-09-13T15:44:42;26.90;99.90
34766;DHT22;20984;43.508;1.504;2022-09-13T15:47:25;26.80;99.90
34766;DHT22;20984;43.508;1.504;2022-09-13T15:53:22;26.60;99.90
34766;DHT22;20984;43.508;1.504;2022-09-13T15:55:48;26.60;99.90
34766;DHT22;20984;43.508;1.504;2022-09-13T16:01:25;26.60;99.90
34766;DHT22;20984;43.508;1.504;2022-09-13T16:04:03;26.60;99.90
34766;DHT22;20984;43.508;1.504;2022-09-13T16:06:35;26.50;99.90
34766;DHT22;20984;43.508;1.504;2022-09-13T16:09:20;26.50;99.90
34766;DHT22;20984;43.508;1.504;2022-09-13T16:12:08;26.40;99.90
34766;DHT22;20984;43.508;1.504;2022-09-13T16:17:34;26.30;99.90
34766;DHT22;20984;43.508;1.504;2022-09-13T16:20:03;26.30;99.90
34766;DHT22;20984;43.508;1.504;2022-09-13T16:23:00;26.20;99.90
34766;DHT22;20984;43.508;1.504;2022-09-13T16:25:36;26.20;99.90
34766;DHT22;20984;43.508;1.504;2022-09-13T16:28:07;26.10;99.90
34766;DHT22;20984;43.508;1.504;2022-09-13T16:31:03;26.10;99.90
34766;DHT22;20984;43.508;1.504;2022-09-13T16:33:41;26.00;99.90
34766;DHT22;20984;43.508;1.504;2022-09-13T16:36:26;26.00;99.90
34766;DHT22;20984;43.508;1.504;2022-09-13T16:38:56;25.90;99.90
34766;DHT22;20984;43.508;1.504;2022-09-13T16:41:27;25.90;99.90
34766;DHT22;20984;43.508;1.504;2022-09-13T16:43:54;25.90;99.90
34766;DHT22;20984;43.508;1.504;2022-09-13T16:46:30;25.80;99.90
34766;DHT22;20984;43.508;1.504;2022-09-13T16:49:09;25.80;99.90
34766;DHT22;20984;43.508;1.504;2022-09-13T16:51:47;25.70;99.90
34766;DHT22;20984;43.508;1.504;2022-09-13T16:54:41;25.70;99.90
34766;DHT22;20984;43.508;1.504;2022-09-13T16:57:22;25.60;99.90
34766;DHT22;20984;43.508;1.504;2022-09-13T16:59:51;25.60;99.90
34766;DHT22;20984;43.508;1.504;2022-09-13T17:02:19;25.50;99.90
34766;DHT22;20984;43.508;1.504;2022-09-13T17:04:45;25.50;99.90
34766;DHT22;20984;43.508;1.504;2022-09-13T17:07:14;25.50;99.90
34766;DHT22;20984;43.508;1.504;2022-09-13T17:09:50;25.50;99.90
34766;DHT22;20984;43.508;1.504;2022-09-13T17:12:27;25.40;99.90
34766;DHT22;20984;43.508;1.504;2022-09-13T17:14:53;25.40;99.90
34766;DHT22;20984;43.508;1.504;2022-09-13T17:17:26;25.40;99.90
34766;DHT22;20984;43.508;1.504;2022-09-13T17:19:55;25.30;99.90
34766;DHT22;20984;43.508;1.504;2022-09-13T17:22:27;25.30;99.90
34766;DHT22;20984;43.508;1.504;2022-09-13T17:25:12;25.30;99.90
34766;DHT22;20984;43.508;1.504;2022-09-13T17:27:59;25.30;99.90
34766;DHT22;20984;43.508;1.504;2022-09-13T17:30:36;25.30;99.90
34766;DHT22;20984;43.508;1.504;2022-09-13T17:33:05;25.20;99.90
34766;DHT22;20984;43.508;1.504;2022-09-13T17:35:38;25.20;99.90
34766;DHT22;20984;43.508;1.504;2022-09-13T17:38:42;25.20;99.90
34766;DHT22;20984;43.508;1.504;2022-09-13T17:41:12;25.20;99.90
34766;DHT22;20984;43.508;1.504;2022-09-13T17:43:39;25.10;99.90
34766;DHT22;20984;43.508;1.504;2022-09-13T17:46:16;25.10;99.90
34766;DHT22;20984;43.508;1.504;2022-09-13T17:48:45;25.10;99.90
34766;DHT22;20984;43.508;1.504;2022-09-13T17:51:25;25.00;99.90
34766;DHT22;20984;43.508;1.504;2022-09-13T17:54:10;25.00;99.90
34766;DHT22;20984;43.508;1.504;2022-09-13T17:56:39;25.00;99.90
34766;DHT22;20984;43.508;1.504;2022-09-13T17:59:12;24.90;99.90
34766;DHT22;20984;43.508;1.504;2022-09-13T18:01:53;24.90;99.90
34766;DHT22;20984;43.508;1.504;2022-09-13T18:04:22;24.90;99.90
34766;DHT22;20984;43.508;1.504;2022-09-13T18:07:10;24.80;99.90
34766;DHT22;20984;43.508;1.504;2022-09-13T18:09:45;24.80;99.90
34766;DHT22;20984;43.508;1.504;2022-09-13T18:12:34;24.80;99.90
34766;DHT22;20984;43.508;1.504;2022-09-13T18:15:06;24.70;99.90
34766;DHT22;20984;43.508;1.504;2022-09-13T18:17:44;24.70;99.90
34766;DHT22;20984;43.508;1.504;2022-09-13T18:20:10;24.60;99.90
34766;DHT22;20984;43.508;1.504;2022-09-13T18:22:39;24.60;99.90
34766;DHT22;20984;43.508;1.504;2022-09-13T18:28:16;24.50;99.90
34766;DHT22;20984;43.508;1.504;2022-09-13T18:31:15;24.50;99.90
34766;DHT22;20984;43.508;1.504;2022-09-13T18:33:55;24.40;99.90
34766;DHT22;20984;43.508;1.504;2022-09-13T18:36:28;24.40;99.90
34766;DHT22;20984;43.508;1.504;2022-09-13T18:39:02;24.40;99.90
34766;DHT22;20984;43.508;1.504;2022-09-13T18:41:38;24.40;99.90
34766;DHT22;20984;43.508;1.504;2022-09-13T18:44:25;24.40;99.90
34766;DHT22;20984;43.508;1.504;2022-09-13T18:46:56;24.40;99.90
34766;DHT22;20984;43.508;1.504;2022-09-13T18:49:28;24.30;99.90
34766;DHT22;20984;43.508;1.504;2022-09-13T18:51:53;24.30;99.90
34766;DHT22;20984;43.508;1.504;2022-09-13T18:54:19;24.30;99.90
34766;DHT22;20984;43.508;1.504;2022-09-13T18:56:46;24.30;99.90
34766;DHT22;20984;43.508;1.504;2022-09-13T18:59:12;24.30;99.90
34766;DHT22;20984;43.508;1.504;2022-09-13T19:01:40;24.30;99.90
34766;DHT22;20984;43.508;1.504;2022-09-13T19:04:11;24.30;99.90
34766;DHT22;20984;43.508;1.504;2022-09-13T19:06:39;24.20;99.90
34766;DHT22;20984;43.508;1.504;2022-09-13T19:09:07;24.20;99.90
34766;DHT22;20984;43.508;1.504;2022-09-13T19:11:35;24.20;99.90
34766;DHT22;20984;43.508;1.504;2022-09-13T19:14:02;24.20;99.90
34766;DHT22;20984;43.508;1.504;2022-09-13T19:16:28;24.20;99.90
34766;DHT22;20984;43.508;1.504;2022-09-13T19:18:54;24.10;99.90
34766;DHT22;20984;43.508;1.504;2022-09-13T19:21:26;24.10;99.90
34766;DHT22;20984;43.508;1.504;2022-09-13T19:23:54;24.10;99.90
34766;DHT22;20984;43.508;1.504;2022-09-13T19:26:27;24.10;99.90
34766;DHT22;20984;43.508;1.504;2022-09-13T19:29:05;24.10;99.90
34766;DHT22;20984;43.508;1.504;2022-09-13T19:31:37;24.10;99.90
34766;DHT22;20984;43.508;1.504;2022-09-13T19:34:04;24.00;99.90
34766;DHT22;20984;43.508;1.504;2022-09-13T19:36:32;24.00;99.90
34766;DHT22;20984;43.508;1.504;2022-09-13T19:38:58;24.00;99.90
34766;DHT22;20984;43.508;1.504;2022-09-13T19:41:26;24.00;99.90
34766;DHT22;20984;43.508;1.504;2022-09-13T19:43:57;24.00;99.90
34766;DHT22;20984;43.508;1.504;2022-09-13T19:46:36;24.00;99.90
34766;DHT22;20984;43.508;1.504;2022-09-13T19:49:03;24.00;99.90
34766;DHT22;20984;43.508;1.504;2022-09-13T19:51:31;23.90;99.90
34766;DHT22;20984;43.508;1.504;2022-09-13T19:53:58;23.90;99.90
34766;DHT22;20984;43.508;1.504;2022-09-13T19:56:27;23.90;99.90
34766;DHT22;20984;43.508;1.504;2022-09-13T19:58:53;23.90;99.90
34766;DHT22;20984;43.508;1.504;2022-09-13T20:01:21;23.90;99.90
34766;DHT22;20984;43.508;1.504;2022-09-13T20:03:56;23.80;99.90
34766;DHT22;20984;43.508;1.504;2022-09-13T20:06:23;23.80;99.90
34766;DHT22;20984;43.508;1.504;2022-09-13T20:08:50;23.80;99.90
34766;DHT22;20984;43.508;1.504;2022-09-13T20:11:17;23.80;99.90
34766;DHT22;20984;43.508;1.504;2022-09-13T20:13:44;23.80;99.90
34766;DHT22;20984;43.508;1.504;2022-09-13T20:16:19;23.80;99.90
34766;DHT22;20984;43.508;1.504;2022-09-13T20:18:45;23.80;99.90
34766;DHT22;20984;43.508;1.504;2022-09-13T20:21:11;23.80;99.90
34766;DHT22;20984;43.508;1.504;2022-09-13T20:23:39;23.70;99.90
34766;DHT22;20984;43.508;1.504;2022-09-13T20:26:17;23.70;99.90
34766;DHT22;20984;43.508;1.504;2022-09-13T20:28:44;23.70;99.90
34766;DHT22;20984;43.508;1.504;2022-09-13T20:31:10;23.70;99.90
34766;DHT22;20984;43.508;1.504;2022-09-13T20:33:37;23.70;99.90
34766;DHT22;20984;43.508;1.504;2022-09-13T20:36:06;23.60;99.90
34766;DHT22;20984;43.508;1.504;2022-09-13T20:38:34;23.60;99.90
34766;DHT22;20984;43.508;1.504;2022-09-13T20:41:08;23.60;99.90
34766;DHT22;20984;43.508;1.504;2022-09-13T20:43:35;23.60;99.90
34766;DHT22;20984;43.508;1.504;2022-09-13T20:46:05;23.60;99.90
34766;DHT22;20984;43.508;1.504;2022-09-13T20:48:32;23.60;99.90